^^
Saratoga-Weather Station Historical Data
Daily Summary for March 1, 2021 Units:  Metric    English   Both
Daily Weekly Monthly Yearly Custom
  High: Low: Average:
Temperature: 22.8 °C 13.3 °C 17.3 °C
Dew Point: 15.1 °C 11.1 °C 13 °C
Humidity: 93% 58% 77%
Wind Speed: 16.3km/h 0km/h 2.9km/h
Wind Gust: 19.3km/h - -
Wind- - SSE
Pressure: 1026.1 hPa 1023.4 hPa -
Precipitation: 0.0 mm    
Historical Graphs
 
 
Tabular Data for March 1, 2021
Time Temperature Dew Point Pressure Wind Wind Speed Wind Gust Humidity Rainfall Rate (Hourly) solar
00:00 14.3 °C 11.3 °C 1024.7 hPa ESE 1.4 km/h 1.6 km/h 82% 0.0 mm 0 W/m2
00:05 14.3 °C 11.3 °C 1024.7 hPa ESE 1.4 km/h 1.6 km/h 82% 0.0 mm 0 W/m2
00:10 14.2 °C 11.4 °C 1024.7 hPa Calm   1.6 km/h 83% 0.0 mm 0 W/m2
00:15 14.2 °C 11.4 °C 1024.7 hPa Calm     83% 0.0 mm 0 W/m2
00:21 14 °C 11.2 °C 1024.7 hPa ESE 3.2 km/h 3.2 km/h 83% 0.0 mm 0 W/m2
00:26 13.9 °C 11.1 °C 1024.7 hPa Calm   1.6 km/h 83% 0.0 mm 0 W/m2
00:31 13.8 °C 11.1 °C 1024.7 hPa Calm   1.6 km/h 84% 0.0 mm 0 W/m2
00:36 13.8 °C 11.3 °C 1024.7 hPa ESE 1.4 km/h 3.2 km/h 85% 0.0 mm 0 W/m2
00:41 13.8 °C 11.3 °C 1024.7 hPa Calm   1.6 km/h 85% 0.0 mm 0 W/m2
00:46 13.8 °C 11.3 °C 1024.7 hPa ESE 1.4 km/h 3.2 km/h 85% 0.0 mm 0 W/m2
00:51 13.8 °C 11.3 °C 1024.7 hPa ESE 1.4 km/h 3.2 km/h 85% 0.0 mm 0 W/m2
00:56 13.8 °C 11.3 °C 1024.7 hPa Calm   1.6 km/h 85% 0.0 mm 0 W/m2
01:01 13.7 °C 11.4 °C 1024.7 hPa ESE 1.4 km/h 3.2 km/h 86% 0.0 mm 0 W/m2
01:06 13.7 °C 11.4 °C 1024.7 hPa Calm   1.6 km/h 86% 0.0 mm 0 W/m2
01:11 13.7 °C 11.4 °C 1024.7 hPa Calm     86% 0.0 mm 0 W/m2
01:16 13.7 °C 11.4 °C 1024.7 hPa Calm     86% 0.0 mm 0 W/m2
01:21 13.7 °C 11.4 °C 1024.7 hPa Calm     86% 0.0 mm 0 W/m2
01:26 13.7 °C 11.4 °C 1024.7 hPa Calm     86% 0.0 mm 0 W/m2
01:31 13.7 °C 11.4 °C 1024.7 hPa ESE 1.4 km/h 1.6 km/h 86% 0.0 mm 0 W/m2
01:36 13.6 °C 11.5 °C 1024.7 hPa ESE 3.2 km/h 3.2 km/h 87% 0.0 mm 0 W/m2
01:41 13.7 °C 11.6 °C 1024.7 hPa Calm     87% 0.0 mm 0 W/m2
01:46 13.6 °C 11.5 °C 1024.7 hPa ESE 1.4 km/h 1.6 km/h 87% 0.0 mm 0 W/m2
01:51 13.6 °C 11.5 °C 1024.7 hPa ESE 1.4 km/h 3.2 km/h 87% 0.0 mm 0 W/m2
01:56 13.6 °C 11.5 °C 1024.7 hPa ESE 1.4 km/h 3.2 km/h 87% 0.0 mm 0 W/m2
02:01 13.6 °C 11.5 °C 1024.7 hPa ESE 1.4 km/h 3.2 km/h 87% 0.0 mm 0 W/m2
02:06 13.5 °C 11.4 °C 1024.7 hPa SE 1.4 km/h 4.8 km/h 87% 0.0 mm 0 W/m2
02:11 13.6 °C 11.5 °C 1024.7 hPa SE 1.4 km/h 3.2 km/h 87% 0.0 mm 0 W/m2
02:16 13.5 °C 11.4 °C 1024.7 hPa SE 1.4 km/h 4.8 km/h 87% 0.0 mm 0 W/m2
02:21 13.5 °C 11.4 °C 1024.7 hPa Calm   3.2 km/h 87% 0.0 mm 0 W/m2
02:26 13.5 °C 11.4 °C 1024.7 hPa SE 1.4 km/h 4.8 km/h 87% 0.0 mm 0 W/m2
02:31 13.4 °C 11.3 °C 1024.7 hPa SE 1.4 km/h 1.6 km/h 87% 0.0 mm 0 W/m2
02:36 13.4 °C 11.5 °C 1024.7 hPa SE 1.4 km/h 3.2 km/h 88% 0.0 mm 0 W/m2
02:41 13.4 °C 11.5 °C 1024.7 hPa SE 1.4 km/h 3.2 km/h 88% 0.0 mm 0 W/m2
02:46 13.3 °C 11.4 °C 1024.7 hPa SE 1.4 km/h 1.6 km/h 88% 0.0 mm 0 W/m2
02:51 13.3 °C 11.4 °C 1024.7 hPa Calm   3.2 km/h 88% 0.0 mm 0 W/m2
02:56 13.3 °C 11.4 °C 1024.7 hPa SE 1.4 km/h 1.6 km/h 88% 0.0 mm 0 W/m2
03:01 13.3 °C 11.4 °C 1024.7 hPa Calm   1.6 km/h 88% 0.0 mm 0 W/m2
03:06 13.3 °C 11.4 °C 1024.7 hPa Calm   1.6 km/h 88% 0.0 mm 0 W/m2
03:12 13.3 °C 11.5 °C 1024.7 hPa SE 1.4 km/h 3.2 km/h 89% 0.0 mm 0 W/m2
03:17 13.3 °C 11.5 °C 1024.7 hPa East 1.4 km/h 4.8 km/h 89% 0.0 mm 0 W/m2
03:22 13.3 °C 11.5 °C 1024.7 hPa Calm   3.2 km/h 89% 0.0 mm 0 W/m2
03:27 13.4 °C 11.6 °C 1024.7 hPa Calm   3.2 km/h 89% 0.0 mm 0 W/m2
03:32 13.4 °C 11.6 °C 1025.1 hPa SE 1.4 km/h 3.2 km/h 89% 0.0 mm 0 W/m2
03:37 13.4 °C 11.6 °C 1024.7 hPa Calm   3.2 km/h 89% 0.0 mm 0 W/m2
03:42 13.4 °C 11.6 °C 1024.7 hPa East 1.4 km/h 3.2 km/h 89% 0.0 mm 0 W/m2
03:47 13.4 °C 11.8 °C 1025.1 hPa SW 3.2 km/h 3.2 km/h 90% 0.0 mm 0 W/m2
03:52 13.5 °C 11.9 °C 1025.1 hPa WNW 1.4 km/h 1.6 km/h 90% 0.0 mm 0 W/m2
03:57 13.5 °C 11.9 °C 1025.1 hPa SSW 1.4 km/h 6.4 km/h 90% 0.0 mm 0 W/m2
04:02 13.5 °C 11.9 °C 1025.1 hPa South 1.4 km/h 3.2 km/h 90% 0.0 mm 0 W/m2
04:07 13.5 °C 11.9 °C 1025.1 hPa Calm   6.4 km/h 90% 0.0 mm 0 W/m2
04:12 13.5 °C 11.9 °C 1025.1 hPa Calm   1.6 km/h 90% 0.0 mm 0 W/m2
04:17 13.5 °C 11.9 °C 1025.1 hPa SW 1.4 km/h 4.8 km/h 90% 0.0 mm 0 W/m2
04:22 13.6 °C 12.2 °C 1025.1 hPa West 3.2 km/h 3.2 km/h 91% 0.0 mm 0 W/m2
04:27 13.6 °C 12 °C 1025.1 hPa Calm   4.8 km/h 90% 0.0 mm 0 W/m2
04:32 13.5 °C 12.1 °C 1025.1 hPa ESE 1.4 km/h 4.8 km/h 91% 0.0 mm 0 W/m2
04:37 13.6 °C 12.2 °C 1025.1 hPa North 1.4 km/h 3.2 km/h 91% 0.0 mm 0 W/m2
04:42 13.7 °C 12.3 °C 1025.1 hPa ESE 3.2 km/h 4.8 km/h 91% 0.0 mm 0 W/m2
04:47 13.8 °C 12.4 °C 1025.1 hPa WNW 1.4 km/h 4.8 km/h 91% 0.0 mm 0 W/m2
04:52 13.8 °C 12.4 °C 1025.1 hPa Calm   1.6 km/h 91% 0.0 mm 0 W/m2
04:57 13.7 °C 12.1 °C 1025.1 hPa West 1.4 km/h 3.2 km/h 90% 0.0 mm 0 W/m2
05:02 13.7 °C 12.3 °C 1025.1 hPa East 1.4 km/h 3.2 km/h 91% 0.0 mm 0 W/m2
05:07 13.6 °C 12.2 °C 1025.1 hPa ESE 3.2 km/h 3.2 km/h 91% 0.0 mm 0 W/m2
05:12 13.7 °C 12.3 °C 1025.1 hPa ENE 1.4 km/h 4.8 km/h 91% 0.0 mm 0 W/m2
05:17 13.7 °C 12.3 °C 1025.1 hPa NE 1.4 km/h 8 km/h 91% 0.0 mm 0 W/m2
05:22 13.7 °C 12.3 °C 1025.1 hPa ENE 1.4 km/h 6.4 km/h 91% 0.0 mm 0 W/m2
05:27 13.6 °C 12.2 °C 1025.1 hPa NE 1.4 km/h 8 km/h 91% 0.0 mm 0 W/m2
05:32 13.7 °C 12.4 °C 1025.1 hPa West 3.2 km/h 4.8 km/h 92% 0.0 mm 0 W/m2
05:37 13.7 °C 12.4 °C 1025.1 hPa Calm   3.2 km/h 92% 0.0 mm 0 W/m2
05:42 13.7 °C 12.4 °C 1025.1 hPa NW 1.4 km/h 3.2 km/h 92% 0.0 mm 0 W/m2
05:47 13.7 °C 12.4 °C 1025.1 hPa ENE 6.4 km/h 6.4 km/h 92% 0.0 mm 0 W/m2
05:52 13.6 °C 12.3 °C 1025.1 hPa West 3.2 km/h 8 km/h 92% 0.0 mm 0 W/m2
05:57 13.6 °C 12.3 °C 1025.1 hPa East 3.2 km/h 4.8 km/h 92% 0.0 mm 0 W/m2
06:02 13.6 °C 12.3 °C 1025.1 hPa Calm   3.2 km/h 92% 0.0 mm 0 W/m2
06:07 13.6 °C 12.3 °C 1025.1 hPa WNW 1.4 km/h 4.8 km/h 92% 0.0 mm 0 W/m2
06:12 13.5 °C 12.2 °C 1025.1 hPa Calm   3.2 km/h 92% 0.0 mm 0 W/m2
06:17 13.4 °C 12.1 °C 1025.1 hPa SSE 3.2 km/h 8 km/h 92% 0.0 mm 0 W/m2
06:22 13.4 °C 12.1 °C 1025.4 hPa Calm   4.8 km/h 92% 0.0 mm 0 W/m2
06:27 13.4 °C 12.1 °C 1025.4 hPa Calm   9.7 km/h 92% 0.0 mm 0 W/m2
06:32 13.4 °C 12.1 °C 1025.4 hPa SE 1.4 km/h 1.6 km/h 92% 0.0 mm 0 W/m2
06:37 13.4 °C 12.1 °C 1025.4 hPa East 3.2 km/h 3.2 km/h 92% 0.0 mm 0 W/m2
06:42 13.4 °C 12.1 °C 1025.4 hPa Calm     92% 0.0 mm 0 W/m2
06:47 13.4 °C 12.1 °C 1025.4 hPa Calm   1.6 km/h 92% 0.0 mm 0 W/m2
06:52 13.4 °C 12.1 °C 1025.4 hPa Calm   3.2 km/h 92% 0.0 mm 0 W/m2
06:57 13.4 °C 12.1 °C 1025.4 hPa NNE 1.4 km/h 1.6 km/h 92% 0.0 mm 7 W/m2
07:02 13.4 °C 12.3 °C 1025.4 hPa Calm   3.2 km/h 93% 0.0 mm 9 W/m2
07:07 13.4 °C 12.3 °C 1025.4 hPa South 3.2 km/h 6.4 km/h 93% 0.0 mm 16 W/m2
07:12 13.4 °C 12.3 °C 1025.4 hPa East 3.2 km/h 4.8 km/h 93% 0.0 mm 18 W/m2
07:17 13.4 °C 12.3 °C 1025.4 hPa North 1.4 km/h 3.2 km/h 93% 0.0 mm 23 W/m2
07:22 13.5 °C 12.2 °C 1025.4 hPa West 1.4 km/h 3.2 km/h 92% 0.0 mm 32 W/m2
07:27 13.6 °C 12.5 °C 1025.4 hPa West 1.4 km/h 6.4 km/h 93% 0.0 mm 35 W/m2
07:32 13.6 °C 12.5 °C 1025.4 hPa ENE 3.2 km/h 3.2 km/h 93% 0.0 mm 44 W/m2
07:37 13.7 °C 12.4 °C 1025.4 hPa Calm   4.8 km/h 92% 0.0 mm 44 W/m2
07:42 13.7 °C 12.4 °C 1025.4 hPa Calm   3.2 km/h 92% 0.0 mm 49 W/m2
07:47 13.8 °C 12.5 °C 1025.7 hPa SW 1.4 km/h 9.7 km/h 92% 0.0 mm 47 W/m2
07:53 13.8 °C 12.5 °C 1025.4 hPa SW 3.2 km/h 3.2 km/h 92% 0.0 mm 49 W/m2
07:58 13.8 °C 12.5 °C 1025.4 hPa SW 1.4 km/h 9.7 km/h 92% 0.0 mm 53 W/m2
08:03 13.9 °C 12.6 °C 1025.4 hPa ENE 3.2 km/h 6.4 km/h 92% 0.0 mm 53 W/m2
08:08 14 °C 12.6 °C 1025.7 hPa West 1.4 km/h 4.8 km/h 91% 0.0 mm 54 W/m2
08:13 14.1 °C 12.7 °C 1025.7 hPa NNW 1.4 km/h 6.4 km/h 91% 0.0 mm 56 W/m2
08:18 14.2 °C 12.8 °C 1025.4 hPa NNW 1.4 km/h 4.8 km/h 91% 0.0 mm 74 W/m2
08:23 14.2 °C 12.8 °C 1025.4 hPa West 4.7 km/h 6.4 km/h 91% 0.0 mm 118 W/m2
08:28 14.3 °C 12.9 °C 1025.4 hPa North 4.7 km/h 4.8 km/h 91% 0.0 mm 137 W/m2
08:33 14.4 °C 12.8 °C 1025.4 hPa East 3.2 km/h 8 km/h 90% 0.0 mm 156 W/m2
08:38 14.6 °C 13 °C 1025.7 hPa NW 1.4 km/h 4.8 km/h 90% 0.0 mm 160 W/m2
08:43 14.7 °C 13.1 °C 1025.7 hPa ESE 3.2 km/h 11.3 km/h 90% 0.0 mm 181 W/m2
08:48 14.8 °C 13 °C 1025.7 hPa NW 1.4 km/h 6.4 km/h 89% 0.0 mm 190 W/m2
08:53 14.9 °C 13.1 °C 1025.7 hPa NW 3.2 km/h 6.4 km/h 89% 0.0 mm 207 W/m2
08:58 15.1 °C 13.1 °C 1025.7 hPa West 3.2 km/h 9.7 km/h 88% 0.0 mm 223 W/m2
09:03 15.2 °C 13.2 °C 1025.7 hPa West 3.2 km/h 6.4 km/h 88% 0.0 mm 230 W/m2
09:08 15.3 °C 13.3 °C 1025.7 hPa NW 4.7 km/h 4.8 km/h 88% 0.0 mm 209 W/m2
09:13 15.4 °C 13.4 °C 1025.7 hPa NNE 6.4 km/h 8 km/h 88% 0.0 mm 83 W/m2
09:18 15.6 °C 13.4 °C 1025.7 hPa SE 3.2 km/h 4.8 km/h 87% 0.0 mm 216 W/m2
09:23 15.8 °C 13.6 °C 1025.7 hPa NW 3.2 km/h 6.4 km/h 87% 0.0 mm 301 W/m2
09:28 16 °C 13.7 °C 1025.7 hPa West 3.2 km/h 4.8 km/h 86% 0.0 mm 313 W/m2
09:33 16.2 °C 13.9 °C 1025.7 hPa NW 3.2 km/h 6.4 km/h 86% 0.0 mm 336 W/m2
09:38 16.3 °C 13.8 °C 1025.7 hPa WNW 1.4 km/h 6.4 km/h 85% 0.0 mm 338 W/m2
09:43 16.6 °C 13.9 °C 1025.7 hPa East 4.7 km/h 11.3 km/h 84% 0.0 mm 369 W/m2
09:48 16.9 °C 13.8 °C 1026.1 hPa NE 14.3 km/h 14.5 km/h 82% 0.0 mm 378 W/m2
09:53 17 °C 13.9 °C 1025.7 hPa North 9.7 km/h 11.3 km/h 82% 0.0 mm 397 W/m2
09:58 17.2 °C 13.7 °C 1026.1 hPa NW 7.9 km/h 12.9 km/h 80% 0.0 mm 396 W/m2
10:03 17.2 °C 13.9 °C 1026.1 hPa NNW 7.9 km/h 12.9 km/h 81% 0.0 mm 404 W/m2
10:08 17.2 °C 13.7 °C 1026.1 hPa North 1.4 km/h 6.4 km/h 80% 0.0 mm 176 W/m2
10:13 17.2 °C 13.7 °C 1026.1 hPa ENE 3.2 km/h 6.4 km/h 80% 0.0 mm 315 W/m2
10:18 17.3 °C 13.8 °C 1026.1 hPa ENE 4.7 km/h 14.5 km/h 80% 0.0 mm 452 W/m2
10:23 17.4 °C 13.9 °C 1026.1 hPa ENE 13 km/h 12.9 km/h 80% 0.0 mm 482 W/m2
10:28 17.6 °C 13.9 °C 1026.1 hPa NNE 1.4 km/h 14.5 km/h 79% 0.0 mm 515 W/m2
10:33 17.7 °C 14 °C 1026.1 hPa SSW 1.4 km/h 6.4 km/h 79% 0.0 mm 520 W/m2
10:38 17.6 °C 13.9 °C 1026.1 hPa West 3.2 km/h 6.4 km/h 79% 0.0 mm 141 W/m2
10:43 17.6 °C 13.7 °C 1026.1 hPa WNW 3.2 km/h 9.7 km/h 78% 0.0 mm 141 W/m2
10:48 17.4 °C 13.7 °C 1026.1 hPa NNE 3.2 km/h 11.3 km/h 79% 0.0 mm 246 W/m2
10:53 17.6 °C 14.1 °C 1026.1 hPa NE 1.4 km/h 11.3 km/h 80% 0.0 mm 624 W/m2
10:58 17.8 °C 13.9 °C 1026.1 hPa North 1.4 km/h 6.4 km/h 78% 0.0 mm 169 W/m2
11:03 17.8 °C 13.9 °C 1025.7 hPa NW 4.7 km/h 6.4 km/h 78% 0.0 mm 679 W/m2
11:08 18.2 °C 14.3 °C 1025.7 hPa ENE 3.2 km/h 11.3 km/h 78% 0.0 mm 721 W/m2
11:13 18.4 °C 14.5 °C 1025.7 hPa NNW 6.4 km/h 6.4 km/h 78% 0.0 mm 619 W/m2
11:18 18.7 °C 14.6 °C 1025.7 hPa NNW 7.9 km/h 12.9 km/h 77% 0.0 mm 768 W/m2
11:23 18.7 °C 14.4 °C 1025.7 hPa WNW 4.7 km/h 11.3 km/h 76% 0.0 mm 338 W/m2
11:28 18.7 °C 14.4 °C 1025.7 hPa NW 7.9 km/h 16.1 km/h 76% 0.0 mm 295 W/m2
11:33 18.7 °C 14.4 °C 1025.7 hPa NNW 3.2 km/h 6.4 km/h 76% 0.0 mm 784 W/m2
11:38 19.1 °C 14.8 °C 1025.7 hPa East 4.7 km/h 12.9 km/h 76% 0.0 mm 752 W/m2
11:43 19.4 °C 14.4 °C 1025.7 hPa East 3.2 km/h 19.3 km/h 73% 0.0 mm 719 W/m2
11:48 19.7 °C 14.7 °C 1025.7 hPa NNE 3.2 km/h 9.7 km/h 73% 0.0 mm 717 W/m2
11:53 19.9 °C 14.7 °C 1025.7 hPa NE 6.4 km/h 19.3 km/h 72% 0.0 mm 719 W/m2
11:58 20.1 °C 14.7 °C 1025.7 hPa SE 3.2 km/h 11.3 km/h 71% 0.0 mm 731 W/m2
12:03 20.2 °C 14.6 °C 1025.7 hPa East 3.2 km/h 8 km/h 70% 0.0 mm 663 W/m2
12:08 20.3 °C 14.9 °C 1025.7 hPa ESE 3.2 km/h 8 km/h 71% 0.0 mm 717 W/m2
12:13 20.3 °C 14.9 °C 1025.7 hPa NNE 4.7 km/h 11.3 km/h 71% 0.0 mm 705 W/m2
12:18 20.4 °C 14.5 °C 1025.4 hPa NNW 4.7 km/h 8 km/h 69% 0.0 mm 137 W/m2
12:23 20.2 °C 14.8 °C 1025.7 hPa Calm   3.2 km/h 71% 0.0 mm 188 W/m2
12:28 20.2 °C 15 °C 1025.4 hPa NNE 3.2 km/h 6.4 km/h 72% 0.0 mm 758 W/m2
12:33 20.4 °C 15 °C 1025.4 hPa West 3.2 km/h 4.8 km/h 71% 0.0 mm 255 W/m2
12:38 20.4 °C 14.7 °C 1025.4 hPa ESE 9.7 km/h 12.9 km/h 70% 0.0 mm 392 W/m2
12:43 20.4 °C 14.5 °C 1025.4 hPa SE 6.4 km/h 9.7 km/h 69% 0.0 mm 881 W/m2
12:48 20.6 °C 14.7 °C 1025.4 hPa NNE 7.9 km/h 8 km/h 69% 0.0 mm 846 W/m2
12:53 20.8 °C 14.7 °C 1025.4 hPa NE 9.7 km/h 12.9 km/h 68% 0.0 mm 846 W/m2
12:58 20.9 °C 15 °C 1025.4 hPa NNE 3.2 km/h 12.9 km/h 69% 0.0 mm 870 W/m2
13:03 21.2 °C 15.1 °C 1025.4 hPa NE 6.4 km/h 8 km/h 68% 0.0 mm 879 W/m2
13:08 21.4 °C 14.8 °C 1025.1 hPa ESE 6.4 km/h 6.4 km/h 66% 0.0 mm 840 W/m2
13:13 21.6 °C 14.7 °C 1025.1 hPa NW 3.2 km/h 12.9 km/h 65% 0.0 mm 842 W/m2
13:18 21.6 °C 15 °C 1025.4 hPa NE 4.7 km/h 11.3 km/h 66% 0.0 mm 265 W/m2
13:23 21.3 °C 14.5 °C 1025.4 hPa East 6.4 km/h 14.5 km/h 65% 0.0 mm 246 W/m2
13:28 21.2 °C 14.8 °C 1025.4 hPa North 1.4 km/h 9.7 km/h 67% 0.0 mm 833 W/m2
13:33 21.4 °C 14.5 °C 1025.1 hPa NNW 3.2 km/h 8 km/h 65% 0.0 mm 142 W/m2
13:38 21.4 °C 14.8 °C 1025.1 hPa ENE 3.2 km/h 9.7 km/h 66% 0.0 mm 172 W/m2
13:43 21.3 °C 14.5 °C 1025.1 hPa WNW 7.9 km/h 9.7 km/h 65% 0.0 mm 251 W/m2
13:48 21.2 °C 14.6 °C 1025.1 hPa ESE 9.7 km/h 14.5 km/h 66% 0.0 mm 359 W/m2
13:53 21.4 °C 14.5 °C 1025.1 hPa East 11.1 km/h 14.5 km/h 65% 0.0 mm 853 W/m2
13:58 21.7 °C 14.8 °C 1025.1 hPa ENE 4.7 km/h 9.7 km/h 65% 0.0 mm 884 W/m2
14:03 21.9 °C 14.8 °C 1025.1 hPa NNE 12.9 km/h 12.9 km/h 64% 0.0 mm 930 W/m2
14:08 21.9 °C 14.3 °C 1025.1 hPa North 1.4 km/h 8 km/h 62% 0.0 mm 197 W/m2
14:13 21.7 °C 14.3 °C 1025.1 hPa ESE 7.9 km/h 8 km/h 63% 0.0 mm 255 W/m2
14:18 21.5 °C 13.9 °C 1025.1 hPa SE 7.9 km/h 11.3 km/h 62% 0.0 mm 206 W/m2
14:23 21.4 °C 14.1 °C 1025.1 hPa SE 1.4 km/h 6.4 km/h 63% 0.0 mm 297 W/m2
14:28 21.7 °C 14.3 °C 1025.1 hPa NE 4.7 km/h 12.9 km/h 63% 0.0 mm 227 W/m2
14:33 21.7 °C 14.3 °C 1025.1 hPa ENE 7.9 km/h 9.7 km/h 63% 0.0 mm 230 W/m2
14:38 21.6 °C 14.3 °C 1025.1 hPa NE 6.4 km/h 16.1 km/h 63% 0.0 mm 244 W/m2
14:43 21.6 °C 14.3 °C 1025.1 hPa NE 7.9 km/h 11.3 km/h 63% 0.0 mm 793 W/m2
14:48 21.7 °C 14.3 °C 1024.7 hPa NNE 3.2 km/h 14.5 km/h 63% 0.0 mm 835 W/m2
14:53 22 °C 14.4 °C 1024.7 hPa ENE 4.7 km/h 11.3 km/h 62% 0.0 mm 216 W/m2
14:58 21.9 °C 14 °C 1024.7 hPa ENE 3.2 km/h 11.3 km/h 61% 0.0 mm 232 W/m2
15:03 22.1 °C 14.5 °C 1024.7 hPa ESE 1.4 km/h 9.7 km/h 62% 0.0 mm 872 W/m2
15:08 22.3 °C 14.4 °C 1024.7 hPa ENE 3.2 km/h 16.1 km/h 61% 0.0 mm 176 W/m2
15:13 22 °C 14.4 °C 1024.7 hPa NE 7.9 km/h 12.9 km/h 62% 0.0 mm 174 W/m2
15:18 21.9 °C 14.3 °C 1024.7 hPa NNW 1.4 km/h 14.5 km/h 62% 0.0 mm 267 W/m2
15:23 21.9 °C 14.5 °C 1024.7 hPa SE 3.2 km/h 4.8 km/h 63% 0.0 mm 547 W/m2
15:28 22.1 °C 14.7 °C 1024.7 hPa NE 6.4 km/h 6.4 km/h 63% 0.0 mm 715 W/m2
15:33 22.3 °C 14.2 °C 1024.7 hPa East 4.7 km/h 14.5 km/h 60% 0.0 mm 707 W/m2
15:38 22.3 °C 14.4 °C 1024.7 hPa East 4.7 km/h 4.8 km/h 61% 0.0 mm 821 W/m2
15:43 22.6 °C 14.4 °C 1024.4 hPa East 6.4 km/h 14.5 km/h 60% 0.0 mm 214 W/m2
15:48 22.4 °C 14.3 °C 1024.4 hPa NE 4.7 km/h 17.7 km/h 60% 0.0 mm 162 W/m2
15:53 22.1 °C 14.2 °C 1024.4 hPa ENE 4.7 km/h 12.9 km/h 61% 0.0 mm 290 W/m2
15:58 22 °C 14.1 °C 1024.4 hPa Calm   17.7 km/h 61% 0.0 mm 684 W/m2
16:03 22.4 °C 14.5 °C 1024.4 hPa NE 6.4 km/h 6.4 km/h 61% 0.0 mm 696 W/m2
16:08 22.7 °C 14 °C 1024.4 hPa ENE 3.2 km/h 11.3 km/h 58% 0.0 mm 396 W/m2
16:13 22.6 °C 14.4 °C 1024.0 hPa East 4.7 km/h 14.5 km/h 60% 0.0 mm 661 W/m2
16:18 22.6 °C 14.7 °C 1024.0 hPa ENE 3.2 km/h 11.3 km/h 61% 0.0 mm 186 W/m2
16:23 22.6 °C 13.9 °C 1024.0 hPa ENE 3.2 km/h 6.4 km/h 58% 0.0 mm 211 W/m2
16:28 22.5 °C 14.1 °C 1024.0 hPa East 3.2 km/h 4.8 km/h 59% 0.0 mm 731 W/m2
16:34 22.7 °C 14.3 °C 1024.0 hPa NE 6.4 km/h 14.5 km/h 59% 0.0 mm 183 W/m2
16:39 22.3 °C 13.9 °C 1024.0 hPa ESE 3.2 km/h 11.3 km/h 59% 0.0 mm 118 W/m2
16:44 22.1 °C 14.2 °C 1024.0 hPa WSW 1.4 km/h 14.5 km/h 61% 0.0 mm 561 W/m2
16:49 22.1 °C 14 °C 1024.0 hPa ENE 4.7 km/h 11.3 km/h 60% 0.0 mm 557 W/m2
16:54 22.3 °C 13.6 °C 1024.0 hPa North 1.4 km/h 11.3 km/h 58% 0.0 mm 615 W/m2
16:59 22.6 °C 13.9 °C 1024.0 hPa NNE 1.4 km/h 11.3 km/h 58% 0.0 mm 643 W/m2
17:04 22.7 °C 14 °C 1024.0 hPa ENE 4.7 km/h 11.3 km/h 58% 0.0 mm 241 W/m2
17:09 22.6 °C 13.9 °C 1024.0 hPa SE 3.2 km/h 4.8 km/h 58% 0.0 mm 209 W/m2
17:14 22.5 °C 14.1 °C 1024.0 hPa East 16.3 km/h 16.1 km/h 59% 0.0 mm 169 W/m2
17:19 22.2 °C 14.1 °C 1024.0 hPa NW 13 km/h 12.9 km/h 60% 0.0 mm 123 W/m2
17:24 22.1 °C 14 °C 1023.7 hPa NE 4.7 km/h 6.4 km/h 60% 0.0 mm 279 W/m2
17:29 22.1 °C 14 °C 1023.7 hPa ESE 4.7 km/h 9.7 km/h 60% 0.0 mm 445 W/m2
17:34 22.2 °C 13.8 °C 1023.7 hPa ENE 1.4 km/h 4.8 km/h 59% 0.0 mm 410 W/m2
17:39 22.5 °C 13.8 °C 1023.7 hPa NW 3.2 km/h 12.9 km/h 58% 0.0 mm 406 W/m2
17:44 22.7 °C 14 °C 1023.7 hPa Calm   6.4 km/h 58% 0.0 mm 404 W/m2
17:49 22.8 °C 14.1 °C 1023.7 hPa West 3.2 km/h 17.7 km/h 58% 0.0 mm 376 W/m2
17:54 22.8 °C 14.4 °C 1023.7 hPa East 4.7 km/h 6.4 km/h 59% 0.0 mm 429 W/m2
17:59 22.8 °C 14.4 °C 1023.7 hPa NE 9.7 km/h 17.7 km/h 59% 0.0 mm 424 W/m2
18:04 22.8 °C 14.1 °C 1023.7 hPa NNE 4.7 km/h 9.7 km/h 58% 0.0 mm 374 W/m2
18:09 22.8 °C 14.1 °C 1023.4 hPa North 6.4 km/h 16.1 km/h 58% 0.0 mm 302 W/m2
18:14 22.6 °C 14.2 °C 1023.4 hPa West 3.2 km/h 6.4 km/h 59% 0.0 mm 299 W/m2
18:19 22.6 °C 14.2 °C 1023.4 hPa NE 4.7 km/h 6.4 km/h 59% 0.0 mm 281 W/m2
18:24 22.3 °C 14.2 °C 1023.4 hPa NNW 6.4 km/h 9.7 km/h 60% 0.0 mm 269 W/m2
18:29 22.2 °C 14.1 °C 1023.4 hPa SSW 1.4 km/h 12.9 km/h 60% 0.0 mm 262 W/m2
18:34 22.1 °C 14 °C 1023.4 hPa NE 4.7 km/h 11.3 km/h 60% 0.0 mm 253 W/m2
18:39 22 °C 13.9 °C 1023.4 hPa NE 3.2 km/h 6.4 km/h 60% 0.0 mm 232 W/m2
18:44 21.9 °C 14 °C 1023.4 hPa North 6.4 km/h 9.7 km/h 61% 0.0 mm 213 W/m2
18:49 21.9 °C 14 °C 1023.4 hPa Calm   12.9 km/h 61% 0.0 mm 195 W/m2
18:54 21.9 °C 14 °C 1023.4 hPa Calm   8 km/h 61% 0.0 mm 178 W/m2
18:59 21.8 °C 13.9 °C 1023.4 hPa East 3.2 km/h 12.9 km/h 61% 0.0 mm 167 W/m2
19:04 21.7 °C 13.8 °C 1023.4 hPa East 1.4 km/h 4.8 km/h 61% 0.0 mm 149 W/m2
19:09 21.5 °C 13.9 °C 1023.4 hPa NE 3.2 km/h 11.3 km/h 62% 0.0 mm 137 W/m2
19:14 21.3 °C 14 °C 1023.4 hPa East 1.4 km/h 4.8 km/h 63% 0.0 mm 121 W/m2
19:19 21.2 °C 13.6 °C 1023.4 hPa NNW 1.4 km/h 6.4 km/h 62% 0.0 mm 105 W/m2
19:24 21.1 °C 13.8 °C 1023.4 hPa NE 1.4 km/h 8 km/h 63% 0.0 mm 93 W/m2
19:29 20.9 °C 13.8 °C 1023.7 hPa ENE 4.7 km/h 4.8 km/h 64% 0.0 mm 81 W/m2
19:34 20.8 °C 13.7 °C 1023.7 hPa NNW 3.2 km/h 8 km/h 64% 0.0 mm 53 W/m2
19:39 20.7 °C 13.6 °C 1023.7 hPa ESE 1.4 km/h 3.2 km/h 64% 0.0 mm 28 W/m2
19:44 20.5 °C 13.7 °C 1023.7 hPa NW 1.4 km/h 4.8 km/h 65% 0.0 mm 25 W/m2
19:49 20.3 °C 13.5 °C 1023.7 hPa North 4.7 km/h 4.8 km/h 65% 0.0 mm 21 W/m2
19:54 20 °C 13.5 °C 1023.7 hPa North 1.4 km/h 8 km/h 66% 0.0 mm 18 W/m2
19:59 19.8 °C 13.5 °C 1023.7 hPa SW 1.4 km/h 4.8 km/h 67% 0.0 mm 16 W/m2
20:04 19.6 °C 13.3 °C 1023.7 hPa NNE 1.4 km/h 8 km/h 67% 0.0 mm 12 W/m2
20:09 19.4 °C 13.3 °C 1023.7 hPa West 3.2 km/h 8 km/h 68% 0.0 mm 11 W/m2
20:14 19.2 °C 13.1 °C 1023.7 hPa NW 3.2 km/h 6.4 km/h 68% 0.0 mm 7 W/m2
20:19 19.1 °C 13.1 °C 1023.7 hPa NE 1.4 km/h 6.4 km/h 68% 0.0 mm 5 W/m2
20:24 18.9 °C 13.1 °C 1023.7 hPa ENE 3.2 km/h 3.2 km/h 69% 0.0 mm 0 W/m2
20:29 18.8 °C 13 °C 1024.0 hPa NW 1.4 km/h 3.2 km/h 69% 0.0 mm 0 W/m2
20:34 18.6 °C 13 °C 1024.0 hPa Calm   4.8 km/h 70% 0.0 mm 0 W/m2
20:39 18.4 °C 12.8 °C 1024.0 hPa Calm   4.8 km/h 70% 0.0 mm 0 W/m2
20:44 18.3 °C 12.7 °C 1024.0 hPa ESE 3.2 km/h 3.2 km/h 70% 0.0 mm 0 W/m2
20:49 18.2 °C 12.9 °C 1024.0 hPa ENE 3.2 km/h 3.2 km/h 71% 0.0 mm 0 W/m2
20:54 18 °C 12.7 °C 1024.0 hPa ENE 1.4 km/h 3.2 km/h 71% 0.0 mm 0 W/m2
20:59 17.9 °C 12.6 °C 1024.0 hPa South 3.2 km/h 12.9 km/h 71% 0.0 mm 0 W/m2
21:04 17.8 °C 12.5 °C 1024.0 hPa NW 13 km/h 12.9 km/h 71% 0.0 mm 0 W/m2
21:09 17.7 °C 12.4 °C 1024.0 hPa NNW 3.2 km/h 9.7 km/h 71% 0.0 mm 0 W/m2
21:14 17.7 °C 12.6 °C 1024.4 hPa Calm   4.8 km/h 72% 0.0 mm 0 W/m2
21:19 17.6 °C 12.5 °C 1024.4 hPa NNW 4.7 km/h 6.4 km/h 72% 0.0 mm 0 W/m2
21:24 17.5 °C 12.4 °C 1024.4 hPa NW 1.4 km/h 4.8 km/h 72% 0.0 mm 0 W/m2
21:29 17.4 °C 12.5 °C 1024.4 hPa NW 3.2 km/h 4.8 km/h 73% 0.0 mm 0 W/m2
21:34 17.2 °C 12.3 °C 1024.4 hPa SE 1.4 km/h 8 km/h 73% 0.0 mm 0 W/m2
21:39 17.1 °C 12.2 °C 1024.4 hPa SSE 1.4 km/h 6.4 km/h 73% 0.0 mm 0 W/m2
21:44 17 °C 12.3 °C 1024.7 hPa NE 1.4 km/h 1.6 km/h 74% 0.0 mm 0 W/m2
21:49 16.9 °C 12.2 °C 1024.7 hPa NW 1.4 km/h 4.8 km/h 74% 0.0 mm 0 W/m2
21:54 16.8 °C 12.3 °C 1024.7 hPa NE 3.2 km/h 9.7 km/h 75% 0.0 mm 0 W/m2
21:59 16.7 °C 12.2 °C 1024.7 hPa NE 1.4 km/h 12.9 km/h 75% 0.0 mm 0 W/m2
22:04 16.7 °C 12.2 °C 1024.7 hPa NW 4.7 km/h 6.4 km/h 75% 0.0 mm 0 W/m2
22:09 16.6 °C 12.1 °C 1024.7 hPa ESE 3.2 km/h 12.9 km/h 75% 0.0 mm 0 W/m2
22:14 16.4 °C 12.2 °C 1024.7 hPa NNW 3.2 km/h 6.4 km/h 76% 0.0 mm 0 W/m2
22:19 16.3 °C 12.3 °C 1024.7 hPa ENE 1.4 km/h 1.6 km/h 77% 0.0 mm 0 W/m2
22:24 16.2 °C 12.2 °C 1024.7 hPa NW 3.2 km/h 6.4 km/h 77% 0.0 mm 0 W/m2
22:29 16.1 °C 12.3 °C 1024.7 hPa Calm   3.2 km/h 78% 0.0 mm 0 W/m2
22:34 15.9 °C 12.1 °C 1024.7 hPa North 1.4 km/h 4.8 km/h 78% 0.0 mm 0 W/m2
22:39 15.9 °C 12.1 °C 1024.7 hPa Calm   6.4 km/h 78% 0.0 mm 0 W/m2
22:44 15.8 °C 12 °C 1024.7 hPa NNW 1.4 km/h 8 km/h 78% 0.0 mm 0 W/m2
22:49 15.7 °C 11.9 °C 1024.7 hPa Calm   3.2 km/h 78% 0.0 mm 0 W/m2
22:54 15.7 °C 11.9 °C 1025.1 hPa ENE 3.2 km/h 3.2 km/h 78% 0.0 mm 0 W/m2
22:59 15.6 °C 12 °C 1025.1 hPa WNW 1.4 km/h 3.2 km/h 79% 0.0 mm 0 W/m2
23:04 15.4 °C 11.8 °C 1025.1 hPa Calm   6.4 km/h 79% 0.0 mm 0 W/m2
23:09 15.3 °C 11.9 °C 1025.1 hPa WNW 1.4 km/h 1.6 km/h 80% 0.0 mm 0 W/m2
23:14 15.2 °C 11.8 °C 1025.1 hPa Calm   6.4 km/h 80% 0.0 mm 0 W/m2
23:19 15.1 °C 11.7 °C 1025.1 hPa NNE 1.4 km/h 3.2 km/h 80% 0.0 mm 0 W/m2
23:24 15 °C 11.8 °C 1025.1 hPa WNW 1.4 km/h 3.2 km/h 81% 0.0 mm 0 W/m2
23:29 14.8 °C 11.6 °C 1025.1 hPa Calm   3.2 km/h 81% 0.0 mm 0 W/m2
23:34 14.7 °C 11.7 °C 1025.1 hPa WNW 1.4 km/h 1.6 km/h 82% 0.0 mm 0 W/m2
23:39 14.6 °C 11.6 °C 1025.1 hPa WNW 1.4 km/h 3.2 km/h 82% 0.0 mm 0 W/m2
23:44 14.4 °C 11.4 °C 1025.1 hPa NNW 1.4 km/h 1.6 km/h 82% 0.0 mm 0 W/m2
23:49 14.4 °C 11.4 °C 1025.1 hPa Calm   1.6 km/h 82% 0.0 mm 0 W/m2
23:54 14.4 °C 11.4 °C 1025.1 hPa NW 1.4 km/h 1.6 km/h 82% 0.0 mm 0 W/m2
23:59 14.4 °C 11.5 °C 1025.1 hPa NW 1.4 km/h 3.2 km/h 83% 0.0 mm 0 W/m2
Juneau County Weather
Compliments of Weather Underground - 4 mb